Weston Turville, United Kingdom
Current Conditions -  °F | °C
As of 9:20 AM on Sunday 21 Dec 2014 (Local Time) from EGGW Reporting Station
Overcast Overcast  
Wind Chill: 38°   Ceiling: 600
Heat Index: 45°   Visibility: 6mi
Dew Point: 43°   Wind: 15mph
Humidity: 93%   Direction: 230°SW
Pressure: 30.3"   Gusts: NA
Location:  51.79°N, 0.76°W
Report Text: EGGW 210920Z 23013KT 9999 BKN006 OVC031 07/06 Q1026
Loading
Personal Weather Stations






























Interactive Weather Map New forecast layout! Learn more

10-Day Weather Forecast

Advertisements
Track Severe Weather on mobile